sensor_id;sensor_type;location;lat;lon;timestamp;P1;durP1;ratioP1;P2;durP2;ratioP2
38797;SDS011;24546;52.240;16.826;2022-09-28T00:04:59;13.98;;;9.82;;
38797;SDS011;24546;52.240;16.826;2022-09-28T00:10:00;16.00;;;10.95;;
38797;SDS011;24546;52.240;16.826;2022-09-28T00:15:01;15.68;;;11.07;;
38797;SDS011;24546;52.240;16.826;2022-09-28T00:20:02;13.05;;;9.70;;
38797;SDS011;24546;52.240;16.826;2022-09-28T00:25:04;12.73;;;9.30;;
38797;SDS011;24546;52.240;16.826;2022-09-28T00:30:06;13.52;;;9.20;;
38797;SDS011;24546;52.240;16.826;2022-09-28T00:35:08;12.60;;;9.20;;
38797;SDS011;24546;52.240;16.826;2022-09-28T00:40:12;11.10;;;8.00;;
38797;SDS011;24546;52.240;16.826;2022-09-28T00:45:16;11.20;;;7.45;;
38797;SDS011;24546;52.240;16.826;2022-09-28T00:50:28;10.38;;;7.20;;
38797;SDS011;24546;52.240;16.826;2022-09-28T01:00:55;9.73;;;7.38;;
38797;SDS011;24546;52.240;16.826;2022-09-28T01:06:02;9.90;;;6.18;;
38797;SDS011;24546;52.240;16.826;2022-09-28T01:11:06;9.38;;;6.47;;
38797;SDS011;24546;52.240;16.826;2022-09-28T01:16:18;8.07;;;5.65;;
38797;SDS011;24546;52.240;16.826;2022-09-28T01:21:57;6.93;;;5.45;;
38797;SDS011;24546;52.240;16.826;2022-09-28T01:27:14;8.43;;;5.90;;
38797;SDS011;24546;52.240;16.826;2022-09-28T01:43:14;7.60;;;5.07;;
38797;SDS011;24546;52.240;16.826;2022-09-28T01:48:30;8.95;;;6.28;;
38797;SDS011;24546;52.240;16.826;2022-09-28T01:53:38;8.95;;;6.07;;
38797;SDS011;24546;52.240;16.826;2022-09-28T02:04:17;7.68;;;5.20;;
38797;SDS011;24546;52.240;16.826;2022-09-28T02:09:42;8.02;;;5.13;;
38797;SDS011;24546;52.240;16.826;2022-09-28T02:15:24;7.80;;;5.50;;
38797;SDS011;24546;52.240;16.826;2022-09-28T02:20:30;8.52;;;5.40;;
38797;SDS011;24546;52.240;16.826;2022-09-28T02:25:39;10.10;;;5.72;;
38797;SDS011;24546;52.240;16.826;2022-09-28T02:30:50;7.80;;;5.70;;
38797;SDS011;24546;52.240;16.826;2022-09-28T02:35:52;5.82;;;4.35;;
38797;SDS011;24546;52.240;16.826;2022-09-28T02:46:41;5.15;;;4.07;;
38797;SDS011;24546;52.240;16.826;2022-09-28T02:52:12;6.80;;;4.80;;
38797;SDS011;24546;52.240;16.826;2022-09-28T03:07:58;7.68;;;5.35;;
38797;SDS011;24546;52.240;16.826;2022-09-28T03:13:21;6.38;;;4.72;;
38797;SDS011;24546;52.240;16.826;2022-09-28T03:18:24;6.90;;;4.88;;
38797;SDS011;24546;52.240;16.826;2022-09-28T03:23:25;6.40;;;4.60;;
38797;SDS011;24546;52.240;16.826;2022-09-28T03:28:26;6.93;;;4.63;;
38797;SDS011;24546;52.240;16.826;2022-09-28T03:33:27;8.52;;;5.10;;
38797;SDS011;24546;52.240;16.826;2022-09-28T03:38:28;7.15;;;5.38;;
38797;SDS011;24546;52.240;16.826;2022-09-28T03:43:29;9.35;;;5.90;;
38797;SDS011;24546;52.240;16.826;2022-09-28T03:48:33;11.48;;;6.55;;
38797;SDS011;24546;52.240;16.826;2022-09-28T03:53:35;9.98;;;6.50;;
38797;SDS011;24546;52.240;16.826;2022-09-28T03:58:36;16.88;;;7.82;;
38797;SDS011;24546;52.240;16.826;2022-09-28T04:03:37;9.63;;;6.18;;
38797;SDS011;24546;52.240;16.826;2022-09-28T04:08:38;9.40;;;6.55;;
38797;SDS011;24546;52.240;16.826;2022-09-28T04:13:39;8.98;;;6.30;;
38797;SDS011;24546;52.240;16.826;2022-09-28T04:18:43;8.85;;;6.05;;
38797;SDS011;24546;52.240;16.826;2022-09-28T04:23:48;10.52;;;6.18;;
38797;SDS011;24546;52.240;16.826;2022-09-28T04:28:49;7.45;;;5.25;;
38797;SDS011;24546;52.240;16.826;2022-09-28T04:34:13;11.57;;;6.35;;
38797;SDS011;24546;52.240;16.826;2022-09-28T04:39:17;9.48;;;6.10;;
38797;SDS011;24546;52.240;16.826;2022-09-28T04:44:22;9.32;;;6.38;;
38797;SDS011;24546;52.240;16.826;2022-09-28T04:49:26;10.13;;;6.93;;
38797;SDS011;24546;52.240;16.826;2022-09-28T04:54:39;7.80;;;6.15;;
38797;SDS011;24546;52.240;16.826;2022-09-28T04:59:40;10.27;;;6.78;;
38797;SDS011;24546;52.240;16.826;2022-09-28T05:04:41;12.55;;;7.95;;
38797;SDS011;24546;52.240;16.826;2022-09-28T05:10:01;12.32;;;8.10;;
38797;SDS011;24546;52.240;16.826;2022-09-28T05:15:04;12.52;;;8.00;;
38797;SDS011;24546;52.240;16.826;2022-09-28T05:20:06;15.15;;;9.25;;
38797;SDS011;24546;52.240;16.826;2022-09-28T05:25:08;11.75;;;8.38;;
38797;SDS011;24546;52.240;16.826;2022-09-28T05:30:20;15.13;;;10.38;;
38797;SDS011;24546;52.240;16.826;2022-09-28T05:35:38;15.82;;;9.95;;
38797;SDS011;24546;52.240;16.826;2022-09-28T05:40:39;18.67;;;11.23;;
38797;SDS011;24546;52.240;16.826;2022-09-28T05:45:40;20.35;;;11.90;;
38797;SDS011;24546;52.240;16.826;2022-09-28T05:50:41;25.23;;;14.07;;
38797;SDS011;24546;52.240;16.826;2022-09-28T05:55:43;18.27;;;10.82;;
38797;SDS011;24546;52.240;16.826;2022-09-28T06:00:44;20.45;;;12.27;;
38797;SDS011;24546;52.240;16.826;2022-09-28T06:05:45;18.63;;;12.27;;
38797;SDS011;24546;52.240;16.826;2022-09-28T06:10:46;19.42;;;11.90;;
38797;SDS011;24546;52.240;16.826;2022-09-28T06:15:48;16.50;;;10.32;;
38797;SDS011;24546;52.240;16.826;2022-09-28T06:20:49;17.05;;;10.13;;
38797;SDS011;24546;52.240;16.826;2022-09-28T06:25:51;15.13;;;10.10;;
38797;SDS011;24546;52.240;16.826;2022-09-28T06:30:52;19.35;;;10.95;;
38797;SDS011;24546;52.240;16.826;2022-09-28T06:35:54;14.25;;;9.18;;
38797;SDS011;24546;52.240;16.826;2022-09-28T06:40:58;12.57;;;8.80;;
38797;SDS011;24546;52.240;16.826;2022-09-28T06:45:59;11.40;;;8.65;;
38797;SDS011;24546;52.240;16.826;2022-09-28T06:51:20;12.25;;;7.93;;
38797;SDS011;24546;52.240;16.826;2022-09-28T06:56:29;11.50;;;7.75;;
38797;SDS011;24546;52.240;16.826;2022-09-28T07:01:31;10.93;;;8.00;;
38797;SDS011;24546;52.240;16.826;2022-09-28T07:06:52;11.15;;;7.68;;
38797;SDS011;24546;52.240;16.826;2022-09-28T07:12:12;8.45;;;6.80;;
38797;SDS011;24546;52.240;16.826;2022-09-28T07:17:36;8.88;;;6.53;;
38797;SDS011;24546;52.240;16.826;2022-09-28T07:22:37;11.27;;;6.50;;
38797;SDS011;24546;52.240;16.826;2022-09-28T07:27:39;7.57;;;5.72;;
38797;SDS011;24546;52.240;16.826;2022-09-28T07:32:50;8.05;;;6.30;;
38797;SDS011;24546;52.240;16.826;2022-09-28T07:38:05;9.80;;;6.50;;
38797;SDS011;24546;52.240;16.826;2022-09-28T07:43:07;6.40;;;4.97;;
38797;SDS011;24546;52.240;16.826;2022-09-28T07:48:08;10.40;;;6.40;;
38797;SDS011;24546;52.240;16.826;2022-09-28T07:53:27;8.98;;;5.60;;
38797;SDS011;24546;52.240;16.826;2022-09-28T07:59:01;8.52;;;5.65;;
38797;SDS011;24546;52.240;16.826;2022-09-28T08:04:21;8.25;;;4.85;;
38797;SDS011;24546;52.240;16.826;2022-09-28T08:09:24;8.85;;;5.25;;
38797;SDS011;24546;52.240;16.826;2022-09-28T08:14:51;5.77;;;4.33;;
38797;SDS011;24546;52.240;16.826;2022-09-28T08:20:17;6.07;;;4.45;;
38797;SDS011;24546;52.240;16.826;2022-09-28T08:25:37;6.07;;;3.83;;
38797;SDS011;24546;52.240;16.826;2022-09-28T08:30:39;5.00;;;3.08;;
38797;SDS011;24546;52.240;16.826;2022-09-28T08:35:59;3.72;;;2.80;;
38797;SDS011;24546;52.240;16.826;2022-09-28T08:41:53;4.93;;;3.35;;
38797;SDS011;24546;52.240;16.826;2022-09-28T08:47:22;4.32;;;2.80;;
38797;SDS011;24546;52.240;16.826;2022-09-28T08:58:50;4.45;;;3.40;;
38797;SDS011;24546;52.240;16.826;2022-09-28T09:03:56;5.15;;;3.88;;
38797;SDS011;24546;52.240;16.826;2022-09-28T09:24:56;5.05;;;4.03;;
38797;SDS011;24546;52.240;16.826;2022-09-28T09:30:09;5.57;;;4.25;;
38797;SDS011;24546;52.240;16.826;2022-09-28T09:35:30;4.57;;;3.90;;
38797;SDS011;24546;52.240;16.826;2022-09-28T09:47:09;5.60;;;3.60;;
38797;SDS011;24546;52.240;16.826;2022-09-28T09:52:32;5.68;;;3.10;;
38797;SDS011;24546;52.240;16.826;2022-09-28T09:57:51;4.88;;;3.30;;
38797;SDS011;24546;52.240;16.826;2022-09-28T10:03:14;4.90;;;3.17;;
38797;SDS011;24546;52.240;16.826;2022-09-28T10:08:20;3.63;;;2.97;;
38797;SDS011;24546;52.240;16.826;2022-09-28T10:13:23;5.15;;;3.00;;
38797;SDS011;24546;52.240;16.826;2022-09-28T10:18:28;3.47;;;3.13;;
38797;SDS011;24546;52.240;16.826;2022-09-28T10:23:49;3.67;;;2.85;;
38797;SDS011;24546;52.240;16.826;2022-09-28T10:29:03;4.05;;;3.30;;
38797;SDS011;24546;52.240;16.826;2022-09-28T10:34:13;4.03;;;3.42;;
38797;SDS011;24546;52.240;16.826;2022-09-28T10:39:28;5.25;;;3.25;;
38797;SDS011;24546;52.240;16.826;2022-09-28T10:50:23;3.95;;;2.95;;
38797;SDS011;24546;52.240;16.826;2022-09-28T10:55:37;4.43;;;3.13;;
38797;SDS011;24546;52.240;16.826;2022-09-28T11:00:39;5.07;;;3.90;;
38797;SDS011;24546;52.240;16.826;2022-09-28T11:11:05;3.65;;;3.30;;
38797;SDS011;24546;52.240;16.826;2022-09-28T11:16:19;4.80;;;3.35;;
38797;SDS011;24546;52.240;16.826;2022-09-28T11:26:37;3.50;;;2.45;;
38797;SDS011;24546;52.240;16.826;2022-09-28T11:31:45;3.92;;;2.40;;
38797;SDS011;24546;52.240;16.826;2022-09-28T11:58:05;3.97;;;2.45;;
38797;SDS011;24546;52.240;16.826;2022-09-28T12:03:16;3.20;;;2.70;;
38797;SDS011;24546;52.240;16.826;2022-09-28T12:08:34;4.00;;;3.20;;
38797;SDS011;24546;52.240;16.826;2022-09-28T12:13:41;2.65;;;2.20;;
38797;SDS011;24546;52.240;16.826;2022-09-28T12:29:29;5.60;;;2.75;;
38797;SDS011;24546;52.240;16.826;2022-09-28T12:34:40;3.50;;;2.75;;
38797;SDS011;24546;52.240;16.826;2022-09-28T12:39:52;4.05;;;2.80;;
38797;SDS011;24546;52.240;16.826;2022-09-28T12:55:51;4.40;;;3.08;;
38797;SDS011;24546;52.240;16.826;2022-09-28T13:06:47;5.72;;;3.55;;
38797;SDS011;24546;52.240;16.826;2022-09-28T13:12:25;5.60;;;3.50;;
38797;SDS011;24546;52.240;16.826;2022-09-28T13:17:47;5.82;;;4.82;;
38797;SDS011;24546;52.240;16.826;2022-09-28T13:28:11;6.80;;;4.68;;
38797;SDS011;24546;52.240;16.826;2022-09-28T13:33:24;7.88;;;5.07;;
38797;SDS011;24546;52.240;16.826;2022-09-28T13:38:43;5.05;;;4.55;;
38797;SDS011;24546;52.240;16.826;2022-09-28T13:49:23;4.30;;;3.38;;
38797;SDS011;24546;52.240;16.826;2022-09-28T14:04:59;9.63;;;5.63;;
38797;SDS011;24546;52.240;16.826;2022-09-28T14:10:19;10.10;;;5.47;;
38797;SDS011;24546;52.240;16.826;2022-09-28T14:15:43;7.43;;;4.95;;
38797;SDS011;24546;52.240;16.826;2022-09-28T14:31:37;6.65;;;4.55;;
38797;SDS011;24546;52.240;16.826;2022-09-28T14:42:09;5.30;;;3.88;;
38797;SDS011;24546;52.240;16.826;2022-09-28T14:47:24;5.15;;;3.80;;
38797;SDS011;24546;52.240;16.826;2022-09-28T14:52:37;4.70;;;3.65;;
38797;SDS011;24546;52.240;16.826;2022-09-28T14:57:51;4.90;;;3.65;;
38797;SDS011;24546;52.240;16.826;2022-09-28T15:03:01;5.18;;;3.67;;
38797;SDS011;24546;52.240;16.826;2022-09-28T15:08:03;4.60;;;3.90;;
38797;SDS011;24546;52.240;16.826;2022-09-28T15:18:41;8.45;;;5.30;;
38797;SDS011;24546;52.240;16.826;2022-09-28T15:24:22;9.15;;;6.95;;
38797;SDS011;24546;52.240;16.826;2022-09-28T15:29:23;7.25;;;6.40;;
38797;SDS011;24546;52.240;16.826;2022-09-28T15:34:31;7.95;;;6.30;;
38797;SDS011;24546;52.240;16.826;2022-09-28T15:39:53;10.75;;;8.57;;
38797;SDS011;24546;52.240;16.826;2022-09-28T15:50:04;10.45;;;8.48;;
38797;SDS011;24546;52.240;16.826;2022-09-28T16:00:37;13.02;;;10.63;;
38797;SDS011;24546;52.240;16.826;2022-09-28T16:05:43;12.60;;;9.98;;
38797;SDS011;24546;52.240;16.826;2022-09-28T16:11:15;13.07;;;10.57;;
38797;SDS011;24546;52.240;16.826;2022-09-28T16:16:27;11.98;;;10.65;;
38797;SDS011;24546;52.240;16.826;2022-09-28T16:21:42;12.57;;;9.85;;
38797;SDS011;24546;52.240;16.826;2022-09-28T16:26:47;12.68;;;10.75;;
38797;SDS011;24546;52.240;16.826;2022-09-28T16:31:53;12.65;;;10.32;;
38797;SDS011;24546;52.240;16.826;2022-09-28T16:36:54;12.20;;;9.93;;
38797;SDS011;24546;52.240;16.826;2022-09-28T16:41:58;14.40;;;11.77;;
38797;SDS011;24546;52.240;16.826;2022-09-28T16:47:02;12.65;;;9.82;;
38797;SDS011;24546;52.240;16.826;2022-09-28T16:52:09;14.73;;;10.57;;
38797;SDS011;24546;52.240;16.826;2022-09-28T16:57:11;10.47;;;8.93;;
38797;SDS011;24546;52.240;16.826;2022-09-28T17:02:15;13.73;;;10.02;;
38797;SDS011;24546;52.240;16.826;2022-09-28T17:07:24;14.75;;;10.80;;
38797;SDS011;24546;52.240;16.826;2022-09-28T17:12:25;14.68;;;10.13;;
38797;SDS011;24546;52.240;16.826;2022-09-28T17:17:28;17.77;;;12.73;;
38797;SDS011;24546;52.240;16.826;2022-09-28T17:22:30;13.40;;;9.25;;
38797;SDS011;24546;52.240;16.826;2022-09-28T17:27:31;15.95;;;11.65;;
38797;SDS011;24546;52.240;16.826;2022-09-28T17:32:32;13.88;;;11.40;;
38797;SDS011;24546;52.240;16.826;2022-09-28T17:37:34;15.90;;;13.05;;
38797;SDS011;24546;52.240;16.826;2022-09-28T17:42:35;16.35;;;13.02;;
38797;SDS011;24546;52.240;16.826;2022-09-28T17:47:36;16.10;;;12.75;;
38797;SDS011;24546;52.240;16.826;2022-09-28T17:52:37;15.75;;;12.32;;
38797;SDS011;24546;52.240;16.826;2022-09-28T17:57:37;16.85;;;12.82;;
38797;SDS011;24546;52.240;16.826;2022-09-28T18:02:39;25.23;;;15.82;;
38797;SDS011;24546;52.240;16.826;2022-09-28T18:07:40;29.30;;;16.35;;
38797;SDS011;24546;52.240;16.826;2022-09-28T18:12:42;29.20;;;20.20;;
38797;SDS011;24546;52.240;16.826;2022-09-28T18:17:43;22.77;;;17.17;;
38797;SDS011;24546;52.240;16.826;2022-09-28T18:22:44;22.92;;;15.73;;
38797;SDS011;24546;52.240;16.826;2022-09-28T18:27:45;19.48;;;14.43;;
38797;SDS011;24546;52.240;16.826;2022-09-28T18:32:46;14.80;;;11.65;;
38797;SDS011;24546;52.240;16.826;2022-09-28T18:37:47;17.83;;;12.27;;
38797;SDS011;24546;52.240;16.826;2022-09-28T18:42:49;14.27;;;10.70;;
38797;SDS011;24546;52.240;16.826;2022-09-28T18:47:50;14.90;;;10.77;;
38797;SDS011;24546;52.240;16.826;2022-09-28T18:52:51;13.23;;;10.20;;
38797;SDS011;24546;52.240;16.826;2022-09-28T18:58:10;14.07;;;10.57;;
38797;SDS011;24546;52.240;16.826;2022-09-28T19:03:11;14.68;;;10.23;;
38797;SDS011;24546;52.240;16.826;2022-09-28T19:08:13;15.02;;;10.50;;
38797;SDS011;24546;52.240;16.826;2022-09-28T19:13:14;14.68;;;10.93;;
38797;SDS011;24546;52.240;16.826;2022-09-28T19:18:15;11.75;;;9.18;;
38797;SDS011;24546;52.240;16.826;2022-09-28T19:23:16;13.57;;;10.23;;
38797;SDS011;24546;52.240;16.826;2022-09-28T19:28:17;12.63;;;10.15;;
38797;SDS011;24546;52.240;16.826;2022-09-28T19:33:18;17.63;;;14.68;;
38797;SDS011;24546;52.240;16.826;2022-09-28T19:38:22;24.95;;;22.05;;
38797;SDS011;24546;52.240;16.826;2022-09-28T19:43:23;12.82;;;9.98;;
38797;SDS011;24546;52.240;16.826;2022-09-28T19:48:27;13.07;;;9.63;;
38797;SDS011;24546;52.240;16.826;2022-09-28T19:53:29;14.02;;;10.30;;
38797;SDS011;24546;52.240;16.826;2022-09-28T19:58:33;15.20;;;10.73;;
38797;SDS011;24546;52.240;16.826;2022-09-28T20:03:35;13.73;;;9.88;;
38797;SDS011;24546;52.240;16.826;2022-09-28T20:08:38;15.68;;;11.07;;
38797;SDS011;24546;52.240;16.826;2022-09-28T20:13:39;18.70;;;11.90;;
38797;SDS011;24546;52.240;16.826;2022-09-28T20:18:41;16.05;;;11.40;;
38797;SDS011;24546;52.240;16.826;2022-09-28T20:23:49;12.52;;;9.52;;
38797;SDS011;24546;52.240;16.826;2022-09-28T20:28:50;15.73;;;10.55;;
38797;SDS011;24546;52.240;16.826;2022-09-28T20:33:52;16.00;;;11.80;;
38797;SDS011;24546;52.240;16.826;2022-09-28T20:38:53;17.52;;;12.70;;
38797;SDS011;24546;52.240;16.826;2022-09-28T20:43:55;17.77;;;12.90;;
38797;SDS011;24546;52.240;16.826;2022-09-28T20:48:58;15.50;;;11.60;;
38797;SDS011;24546;52.240;16.826;2022-09-28T20:53:59;17.42;;;13.63;;
38797;SDS011;24546;52.240;16.826;2022-09-28T20:59:00;22.08;;;14.65;;
38797;SDS011;24546;52.240;16.826;2022-09-28T21:04:02;18.33;;;13.93;;
38797;SDS011;24546;52.240;16.826;2022-09-28T21:09:04;17.98;;;12.63;;
38797;SDS011;24546;52.240;16.826;2022-09-28T21:14:07;16.42;;;12.55;;
38797;SDS011;24546;52.240;16.826;2022-09-28T21:19:09;16.42;;;12.02;;
38797;SDS011;24546;52.240;16.826;2022-09-28T21:24:10;16.27;;;11.77;;
38797;SDS011;24546;52.240;16.826;2022-09-28T21:29:11;16.15;;;12.18;;
38797;SDS011;24546;52.240;16.826;2022-09-28T21:34:18;15.35;;;10.80;;
38797;SDS011;24546;52.240;16.826;2022-09-28T21:39:20;13.10;;;10.60;;
38797;SDS011;24546;52.240;16.826;2022-09-28T21:44:21;17.65;;;11.85;;
38797;SDS011;24546;52.240;16.826;2022-09-28T21:49:22;14.88;;;10.18;;
38797;SDS011;24546;52.240;16.826;2022-09-28T21:54:23;14.90;;;11.80;;
38797;SDS011;24546;52.240;16.826;2022-09-28T21:59:24;16.83;;;11.55;;
38797;SDS011;24546;52.240;16.826;2022-09-28T22:04:25;14.15;;;11.07;;
38797;SDS011;24546;52.240;16.826;2022-09-28T22:09:26;14.50;;;11.98;;
38797;SDS011;24546;52.240;16.826;2022-09-28T22:14:27;14.35;;;9.50;;
38797;SDS011;24546;52.240;16.826;2022-09-28T22:19:27;16.33;;;11.65;;
38797;SDS011;24546;52.240;16.826;2022-09-28T22:24:28;12.85;;;10.02;;
38797;SDS011;24546;52.240;16.826;2022-09-28T22:29:29;15.23;;;11.30;;
38797;SDS011;24546;52.240;16.826;2022-09-28T22:34:30;16.08;;;11.32;;
38797;SDS011;24546;52.240;16.826;2022-09-28T22:39:31;13.73;;;10.05;;
38797;SDS011;24546;52.240;16.826;2022-09-28T22:44:35;16.27;;;12.38;;
38797;SDS011;24546;52.240;16.826;2022-09-28T22:49:37;15.93;;;10.95;;
38797;SDS011;24546;52.240;16.826;2022-09-28T22:54:38;15.95;;;11.90;;
38797;SDS011;24546;52.240;16.826;2022-09-28T22:59:39;17.17;;;13.10;;
38797;SDS011;24546;52.240;16.826;2022-09-28T23:04:40;16.63;;;12.35;;
38797;SDS011;24546;52.240;16.826;2022-09-28T23:09:41;18.27;;;11.90;;
38797;SDS011;24546;52.240;16.826;2022-09-28T23:14:42;17.10;;;12.82;;
38797;SDS011;24546;52.240;16.826;2022-09-28T23:19:43;20.45;;;13.05;;
38797;SDS011;24546;52.240;16.826;2022-09-28T23:24:44;17.77;;;13.10;;
38797;SDS011;24546;52.240;16.826;2022-09-28T23:29:45;23.10;;;15.20;;
38797;SDS011;24546;52.240;16.826;2022-09-28T23:34:47;19.52;;;13.63;;
38797;SDS011;24546;52.240;16.826;2022-09-28T23:39:52;20.27;;;13.32;;
38797;SDS011;24546;52.240;16.826;2022-09-28T23:44:52;18.95;;;12.95;;
38797;SDS011;24546;52.240;16.826;2022-09-28T23:49:53;17.83;;;13.35;;
38797;SDS011;24546;52.240;16.826;2022-09-28T23:54:54;19.25;;;13.38;;
38797;SDS011;24546;52.240;16.826;2022-09-28T23:59:55;20.17;;;13.02;;
